sensor_id;sensor_type;location;lat;lon;timestamp;temperature;humidity
21787;DHT22;11055;50.870;4.316;2024-02-26T00:01:41;8.50;99.90
21787;DHT22;11055;50.870;4.316;2024-02-26T00:04:09;8.50;99.90
21787;DHT22;11055;50.870;4.316;2024-02-26T00:06:35;8.40;99.90
21787;DHT22;11055;50.870;4.316;2024-02-26T00:09:01;8.50;99.90
21787;DHT22;11055;50.870;4.316;2024-02-26T00:11:28;8.40;99.90
21787;DHT22;11055;50.870;4.316;2024-02-26T00:13:53;8.40;99.90
21787;DHT22;11055;50.870;4.316;2024-02-26T00:16:19;8.40;99.90
21787;DHT22;11055;50.870;4.316;2024-02-26T00:18:45;8.40;99.90
21787;DHT22;11055;50.870;4.316;2024-02-26T00:21:11;8.20;99.90
21787;DHT22;11055;50.870;4.316;2024-02-26T00:23:37;8.30;99.90
21787;DHT22;11055;50.870;4.316;2024-02-26T00:26:02;8.30;99.90
21787;DHT22;11055;50.870;4.316;2024-02-26T00:28:29;8.30;99.90
21787;DHT22;11055;50.870;4.316;2024-02-26T00:30:54;8.30;99.90
21787;DHT22;11055;50.870;4.316;2024-02-26T00:33:21;8.20;99.90
21787;DHT22;11055;50.870;4.316;2024-02-26T00:35:48;8.10;99.90
21787;DHT22;11055;50.870;4.316;2024-02-26T00:38:14;8.10;99.90
21787;DHT22;11055;50.870;4.316;2024-02-26T00:40:40;8.00;99.90
21787;DHT22;11055;50.870;4.316;2024-02-26T00:43:08;8.10;99.90
21787;DHT22;11055;50.870;4.316;2024-02-26T00:45:34;8.00;99.90
21787;DHT22;11055;50.870;4.316;2024-02-26T00:48:00;8.00;99.90
21787;DHT22;11055;50.870;4.316;2024-02-26T00:50:33;8.00;99.90
21787;DHT22;11055;50.870;4.316;2024-02-26T00:52:59;7.90;99.90
21787;DHT22;11055;50.870;4.316;2024-02-26T00:55:25;7.90;99.90
21787;DHT22;11055;50.870;4.316;2024-02-26T00:57:50;7.90;99.90
21787;DHT22;11055;50.870;4.316;2024-02-26T01:00:16;7.90;99.90
21787;DHT22;11055;50.870;4.316;2024-02-26T01:02:42;8.00;99.90
21787;DHT22;11055;50.870;4.316;2024-02-26T01:05:08;8.00;99.90
21787;DHT22;11055;50.870;4.316;2024-02-26T01:07:36;8.00;99.90
21787;DHT22;11055;50.870;4.316;2024-02-26T01:10:02;8.00;99.90
21787;DHT22;11055;50.870;4.316;2024-02-26T01:12:29;8.00;99.90
21787;DHT22;11055;50.870;4.316;2024-02-26T01:14:55;8.00;99.90
21787;DHT22;11055;50.870;4.316;2024-02-26T01:17:21;8.00;99.90
21787;DHT22;11055;50.870;4.316;2024-02-26T01:19:47;7.90;99.90
21787;DHT22;11055;50.870;4.316;2024-02-26T01:22:12;7.80;99.90
21787;DHT22;11055;50.870;4.316;2024-02-26T01:24:38;7.80;99.90
21787;DHT22;11055;50.870;4.316;2024-02-26T01:27:04;7.70;99.90
21787;DHT22;11055;50.870;4.316;2024-02-26T01:29:29;7.70;99.90
21787;DHT22;11055;50.870;4.316;2024-02-26T01:31:56;7.70;99.90
21787;DHT22;11055;50.870;4.316;2024-02-26T01:34:21;7.70;99.90
21787;DHT22;11055;50.870;4.316;2024-02-26T01:36:47;7.70;99.90
21787;DHT22;11055;50.870;4.316;2024-02-26T01:39:13;7.60;99.90
21787;DHT22;11055;50.870;4.316;2024-02-26T01:41:39;7.60;99.90
21787;DHT22;11055;50.870;4.316;2024-02-26T01:44:05;7.60;99.90
21787;DHT22;11055;50.870;4.316;2024-02-26T01:46:32;7.50;99.90
21787;DHT22;11055;50.870;4.316;2024-02-26T01:48:58;7.50;99.90
21787;DHT22;11055;50.870;4.316;2024-02-26T01:51:25;7.50;99.90
21787;DHT22;11055;50.870;4.316;2024-02-26T01:53:51;7.50;99.90
21787;DHT22;11055;50.870;4.316;2024-02-26T01:56:17;7.60;99.90
21787;DHT22;11055;50.870;4.316;2024-02-26T01:58:44;7.50;99.90
21787;DHT22;11055;50.870;4.316;2024-02-26T02:01:11;7.50;99.90
21787;DHT22;11055;50.870;4.316;2024-02-26T02:03:37;7.40;99.90
21787;DHT22;11055;50.870;4.316;2024-02-26T02:06:04;7.40;99.90
21787;DHT22;11055;50.870;4.316;2024-02-26T02:08:30;7.40;99.90
21787;DHT22;11055;50.870;4.316;2024-02-26T02:10:56;7.50;99.90
21787;DHT22;11055;50.870;4.316;2024-02-26T02:13:22;7.40;99.90
21787;DHT22;11055;50.870;4.316;2024-02-26T02:15:48;7.40;99.90
21787;DHT22;11055;50.870;4.316;2024-02-26T02:18:13;7.40;99.90
21787;DHT22;11055;50.870;4.316;2024-02-26T02:20:39;7.40;99.90
21787;DHT22;11055;50.870;4.316;2024-02-26T02:23:05;7.40;99.90
21787;DHT22;11055;50.870;4.316;2024-02-26T02:25:30;7.40;99.90
21787;DHT22;11055;50.870;4.316;2024-02-26T02:27:56;7.30;99.90
21787;DHT22;11055;50.870;4.316;2024-02-26T02:30:28;7.30;99.90
21787;DHT22;11055;50.870;4.316;2024-02-26T02:32:55;7.30;99.90
21787;DHT22;11055;50.870;4.316;2024-02-26T02:35:22;7.30;99.90
21787;DHT22;11055;50.870;4.316;2024-02-26T02:37:49;7.30;99.90
21787;DHT22;11055;50.870;4.316;2024-02-26T02:40:15;7.40;99.90
21787;DHT22;11055;50.870;4.316;2024-02-26T02:42:41;7.30;99.90
21787;DHT22;11055;50.870;4.316;2024-02-26T02:45:07;7.30;99.90
21787;DHT22;11055;50.870;4.316;2024-02-26T02:47:36;7.30;99.90
21787;DHT22;11055;50.870;4.316;2024-02-26T02:50:03;7.40;99.90
21787;DHT22;11055;50.870;4.316;2024-02-26T02:52:29;7.40;99.90
21787;DHT22;11055;50.870;4.316;2024-02-26T02:54:55;7.40;99.90
21787;DHT22;11055;50.870;4.316;2024-02-26T02:57:20;7.40;99.90
21787;DHT22;11055;50.870;4.316;2024-02-26T02:59:46;7.30;99.90
21787;DHT22;11055;50.870;4.316;2024-02-26T03:02:12;7.30;99.90
21787;DHT22;11055;50.870;4.316;2024-02-26T03:04:38;7.30;99.90
21787;DHT22;11055;50.870;4.316;2024-02-26T03:07:03;7.30;99.90
21787;DHT22;11055;50.870;4.316;2024-02-26T03:09:29;7.30;99.90
21787;DHT22;11055;50.870;4.316;2024-02-26T03:11:55;7.20;99.90
21787;DHT22;11055;50.870;4.316;2024-02-26T03:14:20;7.20;99.90
21787;DHT22;11055;50.870;4.316;2024-02-26T03:16:46;7.20;99.90
21787;DHT22;11055;50.870;4.316;2024-02-26T03:19:14;7.20;99.90
21787;DHT22;11055;50.870;4.316;2024-02-26T03:21:41;7.20;99.90
21787;DHT22;11055;50.870;4.316;2024-02-26T03:24:07;7.20;99.90
21787;DHT22;11055;50.870;4.316;2024-02-26T03:26:36;7.20;99.90
21787;DHT22;11055;50.870;4.316;2024-02-26T03:29:02;7.20;99.90
21787;DHT22;11055;50.870;4.316;2024-02-26T03:31:28;7.20;99.90
21787;DHT22;11055;50.870;4.316;2024-02-26T03:33:54;7.20;99.90
21787;DHT22;11055;50.870;4.316;2024-02-26T03:36:19;7.10;99.90
21787;DHT22;11055;50.870;4.316;2024-02-26T03:38:47;7.10;99.90
21787;DHT22;11055;50.870;4.316;2024-02-26T03:41:13;7.10;99.90
21787;DHT22;11055;50.870;4.316;2024-02-26T03:43:38;7.10;99.90
21787;DHT22;11055;50.870;4.316;2024-02-26T03:46:07;7.10;99.90
21787;DHT22;11055;50.870;4.316;2024-02-26T03:48:34;7.00;99.90
21787;DHT22;11055;50.870;4.316;2024-02-26T03:50:59;7.10;99.90
21787;DHT22;11055;50.870;4.316;2024-02-26T03:53:26;7.10;99.90
21787;DHT22;11055;50.870;4.316;2024-02-26T03:55:51;7.10;99.90
21787;DHT22;11055;50.870;4.316;2024-02-26T03:58:18;7.10;99.90
21787;DHT22;11055;50.870;4.316;2024-02-26T04:00:43;7.10;99.90
21787;DHT22;11055;50.870;4.316;2024-02-26T04:03:09;7.10;99.90
21787;DHT22;11055;50.870;4.316;2024-02-26T04:05:35;7.00;99.90
21787;DHT22;11055;50.870;4.316;2024-02-26T04:08:01;7.00;99.90
21787;DHT22;11055;50.870;4.316;2024-02-26T04:10:26;7.00;99.90
21787;DHT22;11055;50.870;4.316;2024-02-26T04:12:52;7.00;99.90
21787;DHT22;11055;50.870;4.316;2024-02-26T04:15:18;7.00;99.90
21787;DHT22;11055;50.870;4.316;2024-02-26T04:17:43;6.90;99.90
21787;DHT22;11055;50.870;4.316;2024-02-26T04:20:14;6.90;99.90
21787;DHT22;11055;50.870;4.316;2024-02-26T04:22:41;7.00;99.90
21787;DHT22;11055;50.870;4.316;2024-02-26T04:25:07;7.00;99.90
21787;DHT22;11055;50.870;4.316;2024-02-26T04:27:32;7.00;99.90
21787;DHT22;11055;50.870;4.316;2024-02-26T04:29:58;7.00;99.90
21787;DHT22;11055;50.870;4.316;2024-02-26T04:32:24;7.00;99.90
21787;DHT22;11055;50.870;4.316;2024-02-26T04:34:49;7.00;99.90
21787;DHT22;11055;50.870;4.316;2024-02-26T04:37:15;6.90;99.90
21787;DHT22;11055;50.870;4.316;2024-02-26T04:39:41;6.90;99.90
21787;DHT22;11055;50.870;4.316;2024-02-26T04:42:06;6.80;99.90
21787;DHT22;11055;50.870;4.316;2024-02-26T04:44:32;6.80;99.90
21787;DHT22;11055;50.870;4.316;2024-02-26T04:46:58;6.80;99.90
21787;DHT22;11055;50.870;4.316;2024-02-26T04:49:24;6.80;99.90
21787;DHT22;11055;50.870;4.316;2024-02-26T04:51:50;6.80;99.90
21787;DHT22;11055;50.870;4.316;2024-02-26T04:54:15;6.80;99.90
21787;DHT22;11055;50.870;4.316;2024-02-26T04:56:41;6.80;99.90
21787;DHT22;11055;50.870;4.316;2024-02-26T04:59:07;6.80;99.90
21787;DHT22;11055;50.870;4.316;2024-02-26T05:01:32;6.80;99.90
21787;DHT22;11055;50.870;4.316;2024-02-26T05:03:58;6.80;99.90
21787;DHT22;11055;50.870;4.316;2024-02-26T05:06:24;6.80;99.90
21787;DHT22;11055;50.870;4.316;2024-02-26T05:08:49;6.80;99.90
21787;DHT22;11055;50.870;4.316;2024-02-26T05:11:15;6.80;99.90
21787;DHT22;11055;50.870;4.316;2024-02-26T05:13:41;6.80;99.90
21787;DHT22;11055;50.870;4.316;2024-02-26T05:16:06;6.90;99.90
21787;DHT22;11055;50.870;4.316;2024-02-26T05:18:32;6.80;99.90
21787;DHT22;11055;50.870;4.316;2024-02-26T05:20:58;6.80;99.90
21787;DHT22;11055;50.870;4.316;2024-02-26T05:23:24;6.80;99.90
21787;DHT22;11055;50.870;4.316;2024-02-26T05:25:49;6.80;99.90
21787;DHT22;11055;50.870;4.316;2024-02-26T05:28:15;6.80;99.90
21787;DHT22;11055;50.870;4.316;2024-02-26T05:30:42;6.80;99.90
21787;DHT22;11055;50.870;4.316;2024-02-26T05:33:08;6.80;99.90
21787;DHT22;11055;50.870;4.316;2024-02-26T05:35:34;6.80;99.90
21787;DHT22;11055;50.870;4.316;2024-02-26T05:37:59;6.70;99.90
21787;DHT22;11055;50.870;4.316;2024-02-26T05:40:25;6.70;99.90
21787;DHT22;11055;50.870;4.316;2024-02-26T05:42:50;6.80;99.90
21787;DHT22;11055;50.870;4.316;2024-02-26T05:45:17;6.80;99.90
21787;DHT22;11055;50.870;4.316;2024-02-26T05:47:42;6.80;99.90
21787;DHT22;11055;50.870;4.316;2024-02-26T05:50:09;6.80;99.90
21787;DHT22;11055;50.870;4.316;2024-02-26T05:52:37;6.70;99.90
21787;DHT22;11055;50.870;4.316;2024-02-26T05:55:04;6.80;99.90
21787;DHT22;11055;50.870;4.316;2024-02-26T05:57:31;6.80;99.90
21787;DHT22;11055;50.870;4.316;2024-02-26T05:59:57;6.70;99.90
21787;DHT22;11055;50.870;4.316;2024-02-26T06:02:26;6.80;99.90
21787;DHT22;11055;50.870;4.316;2024-02-26T06:04:52;6.80;99.90
21787;DHT22;11055;50.870;4.316;2024-02-26T06:07:17;6.80;99.90
21787;DHT22;11055;50.870;4.316;2024-02-26T06:09:43;6.80;99.90
21787;DHT22;11055;50.870;4.316;2024-02-26T06:12:09;6.80;99.90
21787;DHT22;11055;50.870;4.316;2024-02-26T06:14:34;6.80;99.90
21787;DHT22;11055;50.870;4.316;2024-02-26T06:17:00;6.80;99.90
21787;DHT22;11055;50.870;4.316;2024-02-26T06:19:26;6.80;99.90
21787;DHT22;11055;50.870;4.316;2024-02-26T06:21:52;6.80;99.90
21787;DHT22;11055;50.870;4.316;2024-02-26T06:24:19;6.80;99.90
21787;DHT22;11055;50.870;4.316;2024-02-26T06:26:46;6.80;99.90
21787;DHT22;11055;50.870;4.316;2024-02-26T06:29:12;6.80;99.90
21787;DHT22;11055;50.870;4.316;2024-02-26T06:31:38;6.80;99.90
21787;DHT22;11055;50.870;4.316;2024-02-26T06:34:03;6.80;99.90
21787;DHT22;11055;50.870;4.316;2024-02-26T06:36:29;6.80;99.90
21787;DHT22;11055;50.870;4.316;2024-02-26T06:38:56;6.70;99.90
21787;DHT22;11055;50.870;4.316;2024-02-26T06:41:22;6.70;99.90
21787;DHT22;11055;50.870;4.316;2024-02-26T06:43:55;6.70;99.90
21787;DHT22;11055;50.870;4.316;2024-02-26T06:46:22;6.70;99.90
21787;DHT22;11055;50.870;4.316;2024-02-26T06:48:49;6.70;99.90
21787;DHT22;11055;50.870;4.316;2024-02-26T06:51:15;6.60;99.90
21787;DHT22;11055;50.870;4.316;2024-02-26T06:53:40;6.70;99.90
21787;DHT22;11055;50.870;4.316;2024-02-26T06:56:06;6.70;99.90
21787;DHT22;11055;50.870;4.316;2024-02-26T06:58:32;6.70;99.90
21787;DHT22;11055;50.870;4.316;2024-02-26T07:00:58;6.70;99.90
21787;DHT22;11055;50.870;4.316;2024-02-26T07:03:24;6.70;99.90
21787;DHT22;11055;50.870;4.316;2024-02-26T07:05:51;6.60;99.90
21787;DHT22;11055;50.870;4.316;2024-02-26T07:08:17;6.70;99.90
21787;DHT22;11055;50.870;4.316;2024-02-26T07:10:43;6.70;99.90
21787;DHT22;11055;50.870;4.316;2024-02-26T07:13:09;6.70;99.90
21787;DHT22;11055;50.870;4.316;2024-02-26T07:15:34;6.70;99.90
21787;DHT22;11055;50.870;4.316;2024-02-26T07:18:00;6.70;99.90
21787;DHT22;11055;50.870;4.316;2024-02-26T07:20:29;6.70;99.90
21787;DHT22;11055;50.870;4.316;2024-02-26T07:22:55;6.70;99.90
21787;DHT22;11055;50.870;4.316;2024-02-26T07:25:21;6.60;99.90
21787;DHT22;11055;50.870;4.316;2024-02-26T07:27:47;6.60;99.90
21787;DHT22;11055;50.870;4.316;2024-02-26T07:30:13;6.60;99.90
21787;DHT22;11055;50.870;4.316;2024-02-26T07:32:39;6.60;99.90
21787;DHT22;11055;50.870;4.316;2024-02-26T07:35:05;6.60;99.90
21787;DHT22;11055;50.870;4.316;2024-02-26T07:37:31;6.70;99.90
21787;DHT22;11055;50.870;4.316;2024-02-26T07:39:56;6.70;99.90
21787;DHT22;11055;50.870;4.316;2024-02-26T07:42:22;6.60;99.90
21787;DHT22;11055;50.870;4.316;2024-02-26T07:44:48;6.60;99.90
21787;DHT22;11055;50.870;4.316;2024-02-26T07:47:13;6.60;99.90
21787;DHT22;11055;50.870;4.316;2024-02-26T07:49:40;6.60;99.90
21787;DHT22;11055;50.870;4.316;2024-02-26T07:52:07;6.60;99.90
21787;DHT22;11055;50.870;4.316;2024-02-26T07:54:32;6.70;99.90
21787;DHT22;11055;50.870;4.316;2024-02-26T07:56:58;6.60;99.90
21787;DHT22;11055;50.870;4.316;2024-02-26T07:59:24;6.70;99.90
21787;DHT22;11055;50.870;4.316;2024-02-26T08:01:53;6.70;99.90
21787;DHT22;11055;50.870;4.316;2024-02-26T08:04:18;6.60;99.90
21787;DHT22;11055;50.870;4.316;2024-02-26T08:06:44;6.70;99.90
21787;DHT22;11055;50.870;4.316;2024-02-26T08:09:10;6.70;99.90
21787;DHT22;11055;50.870;4.316;2024-02-26T08:11:35;6.70;99.90
21787;DHT22;11055;50.870;4.316;2024-02-26T08:14:01;6.60;99.90
21787;DHT22;11055;50.870;4.316;2024-02-26T08:16:27;6.60;99.90
21787;DHT22;11055;50.870;4.316;2024-02-26T08:18:53;6.60;99.90
21787;DHT22;11055;50.870;4.316;2024-02-26T08:21:18;6.60;99.90
21787;DHT22;11055;50.870;4.316;2024-02-26T08:23:44;6.70;99.90
21787;DHT22;11055;50.870;4.316;2024-02-26T08:26:10;6.70;99.90
21787;DHT22;11055;50.870;4.316;2024-02-26T08:28:39;6.80;99.90
21787;DHT22;11055;50.870;4.316;2024-02-26T08:31:05;6.80;99.90
21787;DHT22;11055;50.870;4.316;2024-02-26T08:33:31;6.80;99.90
21787;DHT22;11055;50.870;4.316;2024-02-26T08:35:57;6.80;99.90
21787;DHT22;11055;50.870;4.316;2024-02-26T08:38:23;6.80;99.90
21787;DHT22;11055;50.870;4.316;2024-02-26T08:40:49;6.80;99.90
21787;DHT22;11055;50.870;4.316;2024-02-26T08:43:15;6.70;99.90
21787;DHT22;11055;50.870;4.316;2024-02-26T08:45:40;6.70;99.90
21787;DHT22;11055;50.870;4.316;2024-02-26T08:48:06;6.70;99.90
21787;DHT22;11055;50.870;4.316;2024-02-26T08:50:33;6.80;99.90
21787;DHT22;11055;50.870;4.316;2024-02-26T08:52:58;6.80;99.90
21787;DHT22;11055;50.870;4.316;2024-02-26T08:55:26;6.80;99.90
21787;DHT22;11055;50.870;4.316;2024-02-26T08:57:52;6.90;99.90
21787;DHT22;11055;50.870;4.316;2024-02-26T09:00:18;6.90;99.90
21787;DHT22;11055;50.870;4.316;2024-02-26T09:02:47;6.90;99.90
21787;DHT22;11055;50.870;4.316;2024-02-26T09:05:12;6.90;99.90
21787;DHT22;11055;50.870;4.316;2024-02-26T09:07:38;6.80;99.90
21787;DHT22;11055;50.870;4.316;2024-02-26T09:10:05;6.80;99.90
21787;DHT22;11055;50.870;4.316;2024-02-26T09:12:31;6.80;99.90
21787;DHT22;11055;50.870;4.316;2024-02-26T09:14:57;6.80;99.90
21787;DHT22;11055;50.870;4.316;2024-02-26T09:17:23;6.90;99.90
21787;DHT22;11055;50.870;4.316;2024-02-26T09:19:48;6.90;99.90
21787;DHT22;11055;50.870;4.316;2024-02-26T09:22:14;7.00;99.90
21787;DHT22;11055;50.870;4.316;2024-02-26T09:24:40;7.10;99.90
21787;DHT22;11055;50.870;4.316;2024-02-26T09:27:05;7.00;99.90
21787;DHT22;11055;50.870;4.316;2024-02-26T09:29:32;7.00;99.90
21787;DHT22;11055;50.870;4.316;2024-02-26T09:32:02;6.90;99.90
21787;DHT22;11055;50.870;4.316;2024-02-26T09:34:28;7.00;99.90
21787;DHT22;11055;50.870;4.316;2024-02-26T09:36:53;7.00;99.90
21787;DHT22;11055;50.870;4.316;2024-02-26T09:39:19;7.00;99.90
21787;DHT22;11055;50.870;4.316;2024-02-26T09:41:47;7.10;99.90
21787;DHT22;11055;50.870;4.316;2024-02-26T09:44:18;7.10;99.90
21787;DHT22;11055;50.870;4.316;2024-02-26T09:46:45;7.20;99.90
21787;DHT22;11055;50.870;4.316;2024-02-26T09:49:11;7.10;99.90
21787;DHT22;11055;50.870;4.316;2024-02-26T09:51:38;7.10;99.90
21787;DHT22;11055;50.870;4.316;2024-02-26T09:54:09;7.10;99.90
21787;DHT22;11055;50.870;4.316;2024-02-26T09:56:36;7.20;99.90
21787;DHT22;11055;50.870;4.316;2024-02-26T09:59:06;7.30;99.90
21787;DHT22;11055;50.870;4.316;2024-02-26T10:01:36;7.30;99.90
21787;DHT22;11055;50.870;4.316;2024-02-26T10:04:03;7.20;99.90
21787;DHT22;11055;50.870;4.316;2024-02-26T10:06:29;7.20;99.90
21787;DHT22;11055;50.870;4.316;2024-02-26T10:08:56;7.30;99.90
21787;DHT22;11055;50.870;4.316;2024-02-26T10:11:24;7.20;99.90
21787;DHT22;11055;50.870;4.316;2024-02-26T10:13:50;7.20;99.90
21787;DHT22;11055;50.870;4.316;2024-02-26T10:16:16;7.10;99.90
21787;DHT22;11055;50.870;4.316;2024-02-26T10:18:46;7.10;99.90
21787;DHT22;11055;50.870;4.316;2024-02-26T10:21:13;6.90;99.90
21787;DHT22;11055;50.870;4.316;2024-02-26T10:23:39;6.90;99.90
21787;DHT22;11055;50.870;4.316;2024-02-26T10:26:05;6.80;99.90
21787;DHT22;11055;50.870;4.316;2024-02-26T10:28:30;6.80;99.90
21787;DHT22;11055;50.870;4.316;2024-02-26T10:30:56;6.80;99.90
21787;DHT22;11055;50.870;4.316;2024-02-26T10:33:22;6.70;99.90
21787;DHT22;11055;50.870;4.316;2024-02-26T10:35:48;6.70;99.90
21787;DHT22;11055;50.870;4.316;2024-02-26T10:38:13;6.70;99.90
21787;DHT22;11055;50.870;4.316;2024-02-26T10:40:42;6.70;99.90
21787;DHT22;11055;50.870;4.316;2024-02-26T10:43:08;6.80;99.90
21787;DHT22;11055;50.870;4.316;2024-02-26T10:45:33;6.80;99.90
21787;DHT22;11055;50.870;4.316;2024-02-26T10:48:00;6.80;99.90
21787;DHT22;11055;50.870;4.316;2024-02-26T10:50:26;6.80;99.90
21787;DHT22;11055;50.870;4.316;2024-02-26T10:52:52;6.90;99.90
21787;DHT22;11055;50.870;4.316;2024-02-26T10:55:21;6.90;99.90
21787;DHT22;11055;50.870;4.316;2024-02-26T10:57:48;6.90;99.90
21787;DHT22;11055;50.870;4.316;2024-02-26T11:00:17;7.00;99.90
21787;DHT22;11055;50.870;4.316;2024-02-26T11:02:45;7.10;99.90
21787;DHT22;11055;50.870;4.316;2024-02-26T11:05:12;7.10;99.90
21787;DHT22;11055;50.870;4.316;2024-02-26T11:07:37;7.10;99.90
21787;DHT22;11055;50.870;4.316;2024-02-26T11:10:05;7.10;99.90
21787;DHT22;11055;50.870;4.316;2024-02-26T11:12:32;7.00;99.90
21787;DHT22;11055;50.870;4.316;2024-02-26T11:15:01;6.80;99.90
21787;DHT22;11055;50.870;4.316;2024-02-26T11:17:28;7.00;99.90
21787;DHT22;11055;50.870;4.316;2024-02-26T11:19:57;6.90;99.90
21787;DHT22;11055;50.870;4.316;2024-02-26T11:22:26;6.70;99.90
21787;DHT22;11055;50.870;4.316;2024-02-26T11:24:53;6.60;99.90
21787;DHT22;11055;50.870;4.316;2024-02-26T11:27:24;6.50;99.90
21787;DHT22;11055;50.870;4.316;2024-02-26T11:29:52;6.60;99.90
21787;DHT22;11055;50.870;4.316;2024-02-26T11:32:20;6.60;99.90
21787;DHT22;11055;50.870;4.316;2024-02-26T11:34:46;6.60;99.90
21787;DHT22;11055;50.870;4.316;2024-02-26T11:37:13;6.50;99.90
21787;DHT22;11055;50.870;4.316;2024-02-26T11:39:41;6.60;99.90
21787;DHT22;11055;50.870;4.316;2024-02-26T11:42:14;6.60;99.90
21787;DHT22;11055;50.870;4.316;2024-02-26T11:44:40;6.70;99.90
21787;DHT22;11055;50.870;4.316;2024-02-26T11:49:35;6.70;99.90
21787;DHT22;11055;50.870;4.316;2024-02-26T11:52:06;6.70;99.90
21787;DHT22;11055;50.870;4.316;2024-02-26T11:54:46;6.70;99.90
21787;DHT22;11055;50.870;4.316;2024-02-26T11:57:38;6.80;99.90
21787;DHT22;11055;50.870;4.316;2024-02-26T12:05:17;6.80;99.90
21787;DHT22;11055;50.870;4.316;2024-02-26T12:07:49;6.80;99.90
21787;DHT22;11055;50.870;4.316;2024-02-26T12:10:39;6.80;99.90
21787;DHT22;11055;50.870;4.316;2024-02-26T12:13:14;6.90;99.90
21787;DHT22;11055;50.870;4.316;2024-02-26T12:16:06;6.80;99.90
21787;DHT22;11055;50.870;4.316;2024-02-26T12:18:31;6.90;99.90
21787;DHT22;11055;50.870;4.316;2024-02-26T12:21:04;7.00;99.90
21787;DHT22;11055;50.870;4.316;2024-02-26T12:23:30;7.00;99.90
21787;DHT22;11055;50.870;4.316;2024-02-26T12:25:59;6.90;99.90
21787;DHT22;11055;50.870;4.316;2024-02-26T12:28:29;7.00;99.90
21787;DHT22;11055;50.870;4.316;2024-02-26T12:30:55;7.00;99.90
21787;DHT22;11055;50.870;4.316;2024-02-26T12:33:21;7.10;99.90
21787;DHT22;11055;50.870;4.316;2024-02-26T12:35:47;7.10;99.90
21787;DHT22;11055;50.870;4.316;2024-02-26T12:38:15;7.10;99.90
21787;DHT22;11055;50.870;4.316;2024-02-26T12:40:41;7.10;99.90
21787;DHT22;11055;50.870;4.316;2024-02-26T12:43:07;7.00;99.90
21787;DHT22;11055;50.870;4.316;2024-02-26T12:45:40;7.00;99.90
21787;DHT22;11055;50.870;4.316;2024-02-26T12:48:07;7.20;99.90
21787;DHT22;11055;50.870;4.316;2024-02-26T12:50:33;7.10;99.90
21787;DHT22;11055;50.870;4.316;2024-02-26T12:52:59;7.00;99.90
21787;DHT22;11055;50.870;4.316;2024-02-26T12:55:26;7.10;99.90
21787;DHT22;11055;50.870;4.316;2024-02-26T12:57:52;7.10;99.90
21787;DHT22;11055;50.870;4.316;2024-02-26T13:00:22;7.10;99.90
21787;DHT22;11055;50.870;4.316;2024-02-26T13:02:50;7.20;99.90
21787;DHT22;11055;50.870;4.316;2024-02-26T13:05:17;7.20;99.90
21787;DHT22;11055;50.870;4.316;2024-02-26T13:07:45;7.20;99.90
21787;DHT22;11055;50.870;4.316;2024-02-26T13:10:13;7.10;99.90
21787;DHT22;11055;50.870;4.316;2024-02-26T13:12:46;7.10;99.90
21787;DHT22;11055;50.870;4.316;2024-02-26T13:15:20;7.00;99.90
21787;DHT22;11055;50.870;4.316;2024-02-26T13:17:47;7.00;99.90
21787;DHT22;11055;50.870;4.316;2024-02-26T13:20:13;6.90;99.90
21787;DHT22;11055;50.870;4.316;2024-02-26T13:22:50;7.00;99.90
21787;DHT22;11055;50.870;4.316;2024-02-26T13:25:20;7.00;99.90
21787;DHT22;11055;50.870;4.316;2024-02-26T13:27:46;6.90;99.90
21787;DHT22;11055;50.870;4.316;2024-02-26T13:30:12;7.00;99.90
21787;DHT22;11055;50.870;4.316;2024-02-26T13:32:39;7.00;99.90
21787;DHT22;11055;50.870;4.316;2024-02-26T13:35:09;6.90;99.90
21787;DHT22;11055;50.870;4.316;2024-02-26T13:37:35;6.90;99.90
21787;DHT22;11055;50.870;4.316;2024-02-26T13:40:11;6.80;99.90
21787;DHT22;11055;50.870;4.316;2024-02-26T13:42:38;6.90;99.90
21787;DHT22;11055;50.870;4.316;2024-02-26T13:45:05;6.90;99.90
21787;DHT22;11055;50.870;4.316;2024-02-26T13:47:35;6.90;99.90
21787;DHT22;11055;50.870;4.316;2024-02-26T13:50:01;6.90;99.90
21787;DHT22;11055;50.870;4.316;2024-02-26T13:52:27;6.90;99.90
21787;DHT22;11055;50.870;4.316;2024-02-26T13:54:53;6.90;99.90
21787;DHT22;11055;50.870;4.316;2024-02-26T13:57:19;7.00;99.90
21787;DHT22;11055;50.870;4.316;2024-02-26T13:59:45;6.90;99.90
21787;DHT22;11055;50.870;4.316;2024-02-26T14:02:11;6.80;99.90
21787;DHT22;11055;50.870;4.316;2024-02-26T14:04:37;7.00;99.90
21787;DHT22;11055;50.870;4.316;2024-02-26T14:07:04;7.10;99.90
21787;DHT22;11055;50.870;4.316;2024-02-26T14:09:30;7.10;99.90
21787;DHT22;11055;50.870;4.316;2024-02-26T14:11:56;7.10;99.90
21787;DHT22;11055;50.870;4.316;2024-02-26T14:14:21;7.00;99.90
21787;DHT22;11055;50.870;4.316;2024-02-26T14:16:47;7.20;99.90
21787;DHT22;11055;50.870;4.316;2024-02-26T14:19:12;7.20;99.90
21787;DHT22;11055;50.870;4.316;2024-02-26T14:21:38;7.10;99.90
21787;DHT22;11055;50.870;4.316;2024-02-26T14:24:04;7.10;99.90
21787;DHT22;11055;50.870;4.316;2024-02-26T14:26:30;7.10;99.90
21787;DHT22;11055;50.870;4.316;2024-02-26T14:28:56;7.20;99.90
21787;DHT22;11055;50.870;4.316;2024-02-26T14:31:22;7.00;99.90
21787;DHT22;11055;50.870;4.316;2024-02-26T14:33:47;7.00;99.90
21787;DHT22;11055;50.870;4.316;2024-02-26T14:36:13;7.00;99.90
21787;DHT22;11055;50.870;4.316;2024-02-26T14:38:39;7.00;99.90
21787;DHT22;11055;50.870;4.316;2024-02-26T14:41:05;6.90;99.90
21787;DHT22;11055;50.870;4.316;2024-02-26T14:43:31;6.90;99.90
21787;DHT22;11055;50.870;4.316;2024-02-26T14:46:00;7.00;99.90
21787;DHT22;11055;50.870;4.316;2024-02-26T14:48:26;7.00;99.90
21787;DHT22;11055;50.870;4.316;2024-02-26T14:50:51;7.00;99.90
21787;DHT22;11055;50.870;4.316;2024-02-26T14:53:18;7.00;99.90
21787;DHT22;11055;50.870;4.316;2024-02-26T14:55:43;6.90;99.90
21787;DHT22;11055;50.870;4.316;2024-02-26T14:58:09;6.90;99.90
21787;DHT22;11055;50.870;4.316;2024-02-26T15:00:36;6.90;99.90
21787;DHT22;11055;50.870;4.316;2024-02-26T15:03:02;7.00;99.90
21787;DHT22;11055;50.870;4.316;2024-02-26T15:05:28;7.10;99.90
21787;DHT22;11055;50.870;4.316;2024-02-26T15:07:54;7.10;99.90
21787;DHT22;11055;50.870;4.316;2024-02-26T15:10:19;7.00;99.90
21787;DHT22;11055;50.870;4.316;2024-02-26T15:12:45;7.10;99.90
21787;DHT22;11055;50.870;4.316;2024-02-26T15:15:11;7.10;99.90
21787;DHT22;11055;50.870;4.316;2024-02-26T15:17:37;7.10;99.90
21787;DHT22;11055;50.870;4.316;2024-02-26T15:20:03;7.00;99.90
21787;DHT22;11055;50.870;4.316;2024-02-26T15:22:29;6.90;99.90
21787;DHT22;11055;50.870;4.316;2024-02-26T15:24:54;6.90;99.90
21787;DHT22;11055;50.870;4.316;2024-02-26T15:27:20;6.90;99.90
21787;DHT22;11055;50.870;4.316;2024-02-26T15:29:46;6.90;99.90
21787;DHT22;11055;50.870;4.316;2024-02-26T15:32:11;6.90;99.90
21787;DHT22;11055;50.870;4.316;2024-02-26T15:34:37;6.90;99.90
21787;DHT22;11055;50.870;4.316;2024-02-26T15:37:03;6.90;99.90
21787;DHT22;11055;50.870;4.316;2024-02-26T15:39:29;6.90;99.90
21787;DHT22;11055;50.870;4.316;2024-02-26T15:41:55;6.90;99.90
21787;DHT22;11055;50.870;4.316;2024-02-26T15:44:22;7.00;99.90
21787;DHT22;11055;50.870;4.316;2024-02-26T15:46:48;7.00;99.90
21787;DHT22;11055;50.870;4.316;2024-02-26T15:49:14;6.90;99.90